createdAt,value
2022-09-21T00:00:38.177Z,0.52
2022-09-21T00:03:05.121Z,0.30
2022-09-21T00:05:31.968Z,0.20
2022-09-21T00:08:02.510Z,0.30
2022-09-21T00:10:29.130Z,0.20
2022-09-21T00:12:56.434Z,0.40
2022-09-21T00:15:22.723Z,0.32
2022-09-21T00:17:52.043Z,0.20
2022-09-21T00:20:19.514Z,0.50
2022-09-21T00:22:46.709Z,1.17
2022-09-21T00:25:13.189Z,0.70
2022-09-21T00:27:39.576Z,0.98
2022-09-21T00:30:06.783Z,0.57
2022-09-21T00:32:33.685Z,1.20
2022-09-21T00:35:00.887Z,0.63
2022-09-21T00:37:27.595Z,0.50
2022-09-21T00:39:54.121Z,0.60
2022-09-21T00:42:31.295Z,0.70
2022-09-21T00:44:57.950Z,0.70
2022-09-21T00:47:35.629Z,1.05
2022-09-21T00:50:03.728Z,0.40
2022-09-21T00:52:32.268Z,0.63
2022-09-21T00:55:03.224Z,0.20
2022-09-21T00:57:31.128Z,0.68
2022-09-21T00:59:58.614Z,0.30
2022-09-21T01:02:25.126Z,0.57
2022-09-21T01:04:53.858Z,0.40
2022-09-21T01:07:23.071Z,0.43
2022-09-21T01:09:52.496Z,0.30
2022-09-21T01:12:31.267Z,0.40
2022-09-21T01:14:57.647Z,0.40
2022-09-21T01:17:23.900Z,0.25
2022-09-21T01:19:55.852Z,0.20
2022-09-21T01:22:34.296Z,0.20
2022-09-21T01:25:08.205Z,0.25
2022-09-21T01:27:42.824Z,0.30
2022-09-21T01:30:11.853Z,0.17
2022-09-21T01:32:42.154Z,0.20
2022-09-21T01:35:15.007Z,0.20
2022-09-21T01:37:46.965Z,0.40
2022-09-21T01:40:17.967Z,1.30
2022-09-21T01:42:44.911Z,1.50
2022-09-21T01:45:12.454Z,1.00
2022-09-21T01:47:40.789Z,0.60
2022-09-21T01:50:08.842Z,0.50
2022-09-21T01:52:42.224Z,0.50
2022-09-21T01:55:20.851Z,0.30
2022-09-21T01:57:56.583Z,0.35
2022-09-21T02:00:24.359Z,0.40
2022-09-21T02:03:09.946Z,0.30
2022-09-21T02:05:36.672Z,0.30
2022-09-21T02:08:05.182Z,0.25
2022-09-21T02:10:34.037Z,0.20
2022-09-21T02:13:02.964Z,0.20
2022-09-21T02:15:52.533Z,0.20
2022-09-21T02:18:19.062Z,0.20
2022-09-21T02:20:48.970Z,0.10
2022-09-21T02:23:47.639Z,0.20
2022-09-21T02:26:16.439Z,0.20
2022-09-21T02:28:51.964Z,0.30
2022-09-21T02:31:33.459Z,0.20
2022-09-21T02:34:26.265Z,0.20
2022-09-21T02:36:58.241Z,0.13
2022-09-21T02:39:38.680Z,0.20
2022-09-21T02:42:10.368Z,0.80
2022-09-21T02:44:40.438Z,0.30
2022-09-21T02:47:11.980Z,0.40
2022-09-21T02:49:41.009Z,0.32
2022-09-21T02:52:12.733Z,0.50
2022-09-21T02:54:40.291Z,0.40
2022-09-21T02:57:06.972Z,0.30
2022-09-21T02:59:33.564Z,0.32
2022-09-21T03:01:59.902Z,0.50
2022-09-21T03:04:27.863Z,0.45
2022-09-21T03:06:54.274Z,0.55
2022-09-21T03:09:24.164Z,0.45
2022-09-21T03:11:51.097Z,0.60
2022-09-21T03:14:19.442Z,0.50
2022-09-21T03:16:45.891Z,0.50
2022-09-21T03:19:12.295Z,0.47
2022-09-21T03:21:43.754Z,0.40
2022-09-21T03:24:10.905Z,0.30
2022-09-21T03:26:37.190Z,0.30
2022-09-21T03:29:04.283Z,0.25
2022-09-21T03:31:31.513Z,0.22
2022-09-21T03:33:58.033Z,0.20
2022-09-21T03:36:24.419Z,0.20
2022-09-21T03:38:50.730Z,0.20
2022-09-21T03:41:17.043Z,0.20
2022-09-21T03:43:43.482Z,0.20
2022-09-21T03:46:09.889Z,0.20
2022-09-21T03:48:36.252Z,0.30
2022-09-21T03:51:02.658Z,0.30
2022-09-21T03:53:29.033Z,0.30
2022-09-21T03:55:55.322Z,0.30
2022-09-21T03:58:22.233Z,0.40
2022-09-21T04:00:48.637Z,0.63
2022-09-21T04:03:14.939Z,0.50
2022-09-21T04:05:41.423Z,0.50
2022-09-21T04:08:09.272Z,0.90
2022-09-21T04:10:35.561Z,1.10
2022-09-21T04:13:02.165Z,0.50
2022-09-21T04:15:29.595Z,0.63
2022-09-21T04:17:56.341Z,0.40
2022-09-21T04:20:23.238Z,0.60
2022-09-21T04:22:49.563Z,0.30
2022-09-21T04:25:16.020Z,0.30
2022-09-21T04:27:42.431Z,0.30
2022-09-21T04:30:10.431Z,0.30
2022-09-21T04:32:36.965Z,0.30
2022-09-21T04:35:03.808Z,0.20
2022-09-21T04:37:30.313Z,0.40
2022-09-21T04:39:56.597Z,0.30
2022-09-21T04:42:23.330Z,0.20
2022-09-21T04:44:49.623Z,0.30
2022-09-21T04:47:16.140Z,0.30
2022-09-21T04:49:42.551Z,0.45
2022-09-21T04:52:08.901Z,0.20
2022-09-21T04:54:35.286Z,0.30
2022-09-21T04:57:01.580Z,0.30
2022-09-21T04:59:27.945Z,0.20
2022-09-21T05:01:54.225Z,0.20
2022-09-21T05:04:20.674Z,0.20
2022-09-21T05:06:47.019Z,0.20
2022-09-21T05:09:32.184Z,0.20
2022-09-21T05:11:58.495Z,0.20
2022-09-21T05:14:24.845Z,0.20
2022-09-21T05:16:51.308Z,0.20
2022-09-21T05:19:17.718Z,0.20
2022-09-21T05:21:44.138Z,0.20
2022-09-21T05:24:10.495Z,0.20
2022-09-21T05:26:37.500Z,0.20
2022-09-21T05:29:04.006Z,0.10
2022-09-21T05:31:33.210Z,0.30
2022-09-21T05:34:05.383Z,0.22
2022-09-21T05:38:58.036Z,0.30
2022-09-21T05:41:24.504Z,0.30
2022-09-21T05:43:50.911Z,0.22
2022-09-21T05:46:20.518Z,0.30
2022-09-21T05:48:56.324Z,0.20
2022-09-21T05:51:29.824Z,0.20
2022-09-21T05:54:04.873Z,0.25
2022-09-21T05:56:36.581Z,0.30
2022-09-21T05:59:11.127Z,0.20
2022-09-21T06:01:55.988Z,0.30
2022-09-21T06:04:22.467Z,0.30
2022-09-21T06:06:49.208Z,0.20
2022-09-21T06:09:15.603Z,0.30
2022-09-21T06:11:41.966Z,0.20
2022-09-21T06:14:08.276Z,0.20
2022-09-21T06:16:41.582Z,0.20
2022-09-21T06:19:11.159Z,0.20
2022-09-21T06:21:37.449Z,0.20
2022-09-21T06:24:03.946Z,0.20
2022-09-21T06:26:30.233Z,0.30
2022-09-21T06:28:56.576Z,0.25
2022-09-21T06:31:22.973Z,0.25
2022-09-21T06:33:49.297Z,0.15
2022-09-21T06:36:15.900Z,0.20
2022-09-21T06:38:42.241Z,0.20
2022-09-21T06:41:08.533Z,0.20
2022-09-21T06:43:34.889Z,0.20
2022-09-21T06:46:02.643Z,0.20
2022-09-21T06:48:29.594Z,0.15
2022-09-21T06:51:02.891Z,0.20
2022-09-21T06:53:30.043Z,0.20
2022-09-21T06:56:06.750Z,0.10
2022-09-21T06:58:37.697Z,0.10
2022-09-21T07:01:11.072Z,0.10
2022-09-21T07:03:38.844Z,0.10
2022-09-21T07:06:05.796Z,0.10
2022-09-21T07:11:19.360Z,0.20
2022-09-21T07:13:45.642Z,0.10
2022-09-21T07:16:12.650Z,0.10
2022-09-21T07:18:43.790Z,0.10
2022-09-21T07:21:11.189Z,0.10
2022-09-21T07:23:37.984Z,0.17
2022-09-21T07:26:06.590Z,0.10
2022-09-21T07:28:32.871Z,0.30
2022-09-21T07:30:59.358Z,0.30
2022-09-21T07:33:26.159Z,0.40
2022-09-21T07:35:58.472Z,0.30
2022-09-21T07:38:24.906Z,0.30
2022-09-21T07:40:51.369Z,0.40
2022-09-21T07:43:17.800Z,0.30
2022-09-21T07:45:46.798Z,0.20
2022-09-21T07:48:13.364Z,0.30
2022-09-21T07:50:39.719Z,0.60
2022-09-21T07:53:06.005Z,0.50
2022-09-21T07:55:32.574Z,0.50
2022-09-21T07:58:17.428Z,0.60
2022-09-21T08:00:43.801Z,0.68
2022-09-21T08:03:10.717Z,0.65
2022-09-21T08:05:37.006Z,0.50
2022-09-21T08:08:03.916Z,0.85
2022-09-21T08:10:31.937Z,0.30
2022-09-21T08:12:58.344Z,0.40
2022-09-21T08:15:46.894Z,0.68
2022-09-21T08:18:11.137Z,0.50
2022-09-21T08:20:37.433Z,0.82
2022-09-21T08:23:04.164Z,0.55
2022-09-21T08:25:30.444Z,0.30
2022-09-21T08:28:00.528Z,0.50
2022-09-21T08:30:28.211Z,0.98
2022-09-21T08:32:55.130Z,0.70
2022-09-21T08:35:21.525Z,0.40
2022-09-21T08:37:47.817Z,0.70
2022-09-21T08:40:16.765Z,0.85
2022-09-21T08:42:50.876Z,0.70
2022-09-21T08:45:18.872Z,0.88
2022-09-21T08:47:48.503Z,0.75
2022-09-21T08:50:28.952Z,0.30
2022-09-21T08:52:58.706Z,5.18
2022-09-21T08:55:25.027Z,2.53
2022-09-21T08:57:51.432Z,2.00
2022-09-21T09:00:18.916Z,3.67
2022-09-21T09:03:00.867Z,1.83
2022-09-21T09:05:46.169Z,1.52
2022-09-21T09:08:12.744Z,0.98
2022-09-21T09:10:41.582Z,2.88
2022-09-21T09:13:14.102Z,1.30
2022-09-21T09:15:46.591Z,1.40
2022-09-21T09:18:21.316Z,3.10
2022-09-21T09:20:49.533Z,1.52
2022-09-21T09:23:24.258Z,1.00
2022-09-21T09:25:52.978Z,2.30
2022-09-21T09:28:22.240Z,3.85
2022-09-21T09:30:53.028Z,3.20
2022-09-21T09:33:21.972Z,5.22
2022-09-21T09:35:55.495Z,2.20
2022-09-21T09:38:27.824Z,1.90
2022-09-21T09:41:18.056Z,1.75
2022-09-21T09:43:47.561Z,3.72
2022-09-21T09:46:18.642Z,2.33
2022-09-21T09:49:04.823Z,2.08
2022-09-21T09:51:32.411Z,2.60
2022-09-21T09:54:00.486Z,2.55
2022-09-21T09:56:26.997Z,4.07
2022-09-21T09:58:56.423Z,2.25
2022-09-21T10:01:42.983Z,1.58
2022-09-21T10:04:11.186Z,1.48
2022-09-21T10:06:41.107Z,1.67
2022-09-21T10:09:33.487Z,4.47
2022-09-21T10:12:20.083Z,1.83
2022-09-21T10:14:50.392Z,1.77
2022-09-21T10:17:17.617Z,1.55
2022-09-21T10:19:44.105Z,1.52
2022-09-21T10:22:17.926Z,2.55
2022-09-21T10:24:48.675Z,1.17
2022-09-21T10:27:16.119Z,2.60
2022-09-21T10:29:43.811Z,1.08
2022-09-21T10:32:14.719Z,4.80
2022-09-21T10:34:44.638Z,3.13
2022-09-21T10:37:25.391Z,4.43
2022-09-21T10:39:51.732Z,3.17
2022-09-21T10:42:18.706Z,1.05
2022-09-21T10:44:50.061Z,0.93
2022-09-21T10:47:22.452Z,1.05
2022-09-21T10:49:55.881Z,1.15
2022-09-21T10:52:24.595Z,1.77
2022-09-21T10:54:52.262Z,1.70
2022-09-21T10:57:20.417Z,2.53
2022-09-21T10:59:46.943Z,2.15
2022-09-21T11:02:31.462Z,2.25
2022-09-21T11:05:18.969Z,4.55
2022-09-21T11:07:52.267Z,1.80
2022-09-21T11:10:21.193Z,1.67
2022-09-21T11:13:06.284Z,1.73
2022-09-21T11:16:11.537Z,1.30
2022-09-21T11:18:54.213Z,1.05
2022-09-21T11:21:27.349Z,0.88
2022-09-21T11:23:56.394Z,1.10
2022-09-21T11:26:25.522Z,0.75
2022-09-21T11:28:51.839Z,1.30
2022-09-21T11:31:37.116Z,1.65
2022-09-21T11:34:11.538Z,0.65
2022-09-21T11:36:48.120Z,1.50
2022-09-21T11:39:14.531Z,1.88
2022-09-21T11:41:40.776Z,0.60
2022-09-21T11:44:19.046Z,1.17
2022-09-21T11:46:51.695Z,2.70
2022-09-21T11:49:36.863Z,1.00
2022-09-21T11:52:03.116Z,1.33
2022-09-21T11:54:48.196Z,1.23
2022-09-21T11:57:34.731Z,0.73
2022-09-21T12:00:07.968Z,2.38
2022-09-21T12:02:53.226Z,0.50
2022-09-21T12:05:19.525Z,0.68
2022-09-21T12:07:45.784Z,0.30
2022-09-21T12:10:37.040Z,0.50
2022-09-21T12:13:12.542Z,0.40
2022-09-21T12:15:47.995Z,0.20
2022-09-21T12:18:24.048Z,0.25
2022-09-21T12:21:00.640Z,0.20
2022-09-21T12:23:31.162Z,0.30
2022-09-21T12:25:58.553Z,0.20
2022-09-21T12:28:27.785Z,0.82
2022-09-21T12:31:00.651Z,0.40
2022-09-21T12:33:46.954Z,0.47
2022-09-21T12:36:17.222Z,0.50
2022-09-21T12:38:44.239Z,0.38
2022-09-21T12:41:10.814Z,0.30
2022-09-21T12:43:41.456Z,0.15
2022-09-21T12:46:07.791Z,0.35
2022-09-21T12:48:37.643Z,0.20
2022-09-21T12:51:24.631Z,0.20
2022-09-21T12:53:55.383Z,0.50
2022-09-21T12:56:37.467Z,0.20
2022-09-21T12:59:03.784Z,0.20
2022-09-21T13:01:33.011Z,0.17
2022-09-21T13:04:05.471Z,0.77
2022-09-21T13:07:00.290Z,0.25
2022-09-21T13:09:27.006Z,0.10
2022-09-21T13:11:56.471Z,0.10
2022-09-21T13:14:24.896Z,0.17
2022-09-21T13:17:00.512Z,0.40
2022-09-21T13:19:29.462Z,0.40
2022-09-21T13:22:13.778Z,0.95
2022-09-21T13:24:42.241Z,0.38
2022-09-21T13:27:08.804Z,0.35
2022-09-21T13:29:36.431Z,0.43
2022-09-21T13:32:03.706Z,1.05
2022-09-21T13:34:37.460Z,0.30
2022-09-21T13:37:16.814Z,0.20
2022-09-21T13:39:44.452Z,0.30
2022-09-21T13:42:29.285Z,0.30
2022-09-21T13:44:56.423Z,1.10
2022-09-21T13:47:48.949Z,0.50
2022-09-21T13:50:27.254Z,0.30
2022-09-21T13:52:59.139Z,0.52
2022-09-21T13:55:30.511Z,0.35
2022-09-21T13:57:58.888Z,0.20
2022-09-21T14:00:28.140Z,0.10
2022-09-21T14:02:58.375Z,0.10
2022-09-21T14:05:42.946Z,0.15
2022-09-21T14:08:15.615Z,0.20
2022-09-21T14:11:02.555Z,0.15
2022-09-21T14:13:34.385Z,0.20
2022-09-21T14:16:19.614Z,0.13
2022-09-21T14:18:47.061Z,0.20
2022-09-21T14:21:17.299Z,0.20
2022-09-21T14:24:04.170Z,0.38
2022-09-21T14:26:39.555Z,0.43
2022-09-21T14:29:26.217Z,0.20
2022-09-21T14:31:54.754Z,0.10
2022-09-21T14:34:23.943Z,0.10
2022-09-21T14:36:51.775Z,0.00
2022-09-21T14:39:23.565Z,0.00
2022-09-21T14:41:54.054Z,0.13
2022-09-21T14:44:21.988Z,0.00
2022-09-21T14:47:00.119Z,0.00
2022-09-21T14:49:35.903Z,0.10
2022-09-21T14:52:22.500Z,0.10
2022-09-21T14:55:15.744Z,0.08
2022-09-21T14:57:48.624Z,0.05
2022-09-21T15:00:15.003Z,0.10
2022-09-21T15:02:44.308Z,0.10
2022-09-21T15:05:25.168Z,0.20
2022-09-21T15:08:14.497Z,0.03
2022-09-21T15:10:56.082Z,0.00
2022-09-21T15:15:58.127Z,0.10
2022-09-21T15:18:25.738Z,0.50
2022-09-21T15:21:01.589Z,0.00
2022-09-21T15:23:29.623Z,0.00
2022-09-21T15:25:59.171Z,0.00
2022-09-21T15:29:08.336Z,0.00
2022-09-21T15:31:35.732Z,0.00
2022-09-21T15:34:04.682Z,0.00
2022-09-21T15:36:31.283Z,0.00
2022-09-21T15:38:59.811Z,0.00
2022-09-21T15:41:41.589Z,0.00
2022-09-21T15:44:18.510Z,0.00
2022-09-21T15:46:50.505Z,0.00
2022-09-21T15:49:21.348Z,0.10
2022-09-21T15:51:58.914Z,0.00
2022-09-21T15:54:32.050Z,0.00
2022-09-21T15:56:59.659Z,0.08
2022-09-21T15:59:26.308Z,0.00
2022-09-21T16:01:54.357Z,0.00
2022-09-21T16:04:24.881Z,0.00
2022-09-21T16:07:05.648Z,0.52
2022-09-21T16:09:42.907Z,0.00
2022-09-21T16:12:28.209Z,0.10
2022-09-21T16:14:54.663Z,1.17
2022-09-21T16:17:21.161Z,0.10
2022-09-21T16:19:53.948Z,0.05
2022-09-21T16:22:41.354Z,0.10
2022-09-21T16:25:37.081Z,0.10
2022-09-21T16:28:06.039Z,0.10
2022-09-21T16:30:48.867Z,0.52
2022-09-21T16:33:33.905Z,0.10
2022-09-21T16:36:04.212Z,0.90
2022-09-21T16:38:33.622Z,0.10
2022-09-21T16:41:01.641Z,0.10
2022-09-21T16:43:27.987Z,0.65
2022-09-21T16:45:54.283Z,0.20
2022-09-21T16:48:20.680Z,0.30
2022-09-21T16:50:47.444Z,0.20
2022-09-21T16:53:13.746Z,0.10
2022-09-21T16:55:42.972Z,0.10
2022-09-21T16:58:09.287Z,0.10
2022-09-21T17:00:38.985Z,0.15
2022-09-21T17:03:05.426Z,0.15
2022-09-21T17:05:31.718Z,0.28
2022-09-21T17:07:58.947Z,0.35
2022-09-21T17:10:29.078Z,0.20
2022-09-21T17:12:56.002Z,0.10
2022-09-21T17:15:22.957Z,0.20
2022-09-21T17:17:50.383Z,0.10
2022-09-21T17:20:36.913Z,0.10
2022-09-21T17:23:03.501Z,0.25
2022-09-21T17:25:30.308Z,0.10
2022-09-21T17:27:59.515Z,0.10
2022-09-21T17:30:26.665Z,0.10
2022-09-21T17:32:53.279Z,0.10
2022-09-21T17:35:31.124Z,0.30
2022-09-21T17:37:57.764Z,0.10
2022-09-21T17:40:24.739Z,0.10
2022-09-21T17:42:52.913Z,0.05
2022-09-21T17:45:57.916Z,0.17
2022-09-21T17:48:24.809Z,0.10
2022-09-21T17:50:51.455Z,0.20
2022-09-21T17:53:36.378Z,0.10
2022-09-21T17:56:17.996Z,0.10
2022-09-21T17:58:50.424Z,0.08
2022-09-21T18:01:24.304Z,0.10
2022-09-21T18:03:51.000Z,0.10
2022-09-21T18:06:17.512Z,0.10
2022-09-21T18:08:43.971Z,0.10
2022-09-21T18:11:29.066Z,0.00
2022-09-21T18:13:59.422Z,0.08
2022-09-21T18:16:33.633Z,0.10
2022-09-21T18:19:19.862Z,0.10
2022-09-21T18:21:50.549Z,0.10
2022-09-21T18:24:19.761Z,0.10
2022-09-21T18:26:46.643Z,0.10
2022-09-21T18:29:38.779Z,0.03
2022-09-21T18:32:08.832Z,0.10
2022-09-21T18:34:54.771Z,0.10
2022-09-21T18:37:21.044Z,0.10
2022-09-21T18:39:47.342Z,0.20
2022-09-21T18:42:26.134Z,0.40
2022-09-21T18:45:05.120Z,0.50
2022-09-21T18:47:43.180Z,0.77
2022-09-21T18:50:21.316Z,0.90
2022-09-21T18:52:57.961Z,1.17
2022-09-21T18:55:26.958Z,1.40
2022-09-21T18:57:54.215Z,1.17
2022-09-21T19:00:21.026Z,0.77
2022-09-21T19:03:05.347Z,1.55
2022-09-21T19:05:34.626Z,0.80
2022-09-21T19:08:05.662Z,0.50
2022-09-21T19:10:55.106Z,0.40
2022-09-21T19:13:21.753Z,0.70
2022-09-21T19:16:00.959Z,0.40
2022-09-21T19:18:39.833Z,0.38
2022-09-21T19:21:14.498Z,0.30
2022-09-21T19:23:44.011Z,0.30
2022-09-21T19:26:13.108Z,0.55
2022-09-21T19:28:45.667Z,0.30
2022-09-21T19:31:13.558Z,0.30
2022-09-21T19:33:49.921Z,0.20
2022-09-21T19:36:17.757Z,0.30
2022-09-21T19:38:44.188Z,0.22
2022-09-21T19:41:18.838Z,0.20
2022-09-21T19:43:59.016Z,0.25
2022-09-21T19:46:40.364Z,0.20
2022-09-21T19:49:12.906Z,0.20
2022-09-21T19:51:47.483Z,0.95
2022-09-21T19:54:33.999Z,0.10
2022-09-21T19:57:19.171Z,0.10
2022-09-21T19:59:45.768Z,0.10
2022-09-21T20:02:32.415Z,0.10
2022-09-21T20:05:19.055Z,0.10
2022-09-21T20:08:04.370Z,0.20
2022-09-21T20:10:30.757Z,0.20
2022-09-21T20:13:06.652Z,0.65
2022-09-21T20:15:53.249Z,0.60
2022-09-21T20:18:22.510Z,1.13
2022-09-21T20:20:48.840Z,0.85
2022-09-21T20:23:15.225Z,1.40
2022-09-21T20:26:03.491Z,0.70
2022-09-21T20:28:31.079Z,0.98
2022-09-21T20:30:57.474Z,0.45
2022-09-21T20:33:24.217Z,0.43
2022-09-21T20:35:55.346Z,0.30
2022-09-21T20:38:23.031Z,0.40
2022-09-21T20:40:49.529Z,0.30
2022-09-21T20:43:15.887Z,0.30
2022-09-21T20:45:47.605Z,0.20
2022-09-21T20:48:14.171Z,0.35
2022-09-21T20:50:44.452Z,0.30
2022-09-21T20:53:10.830Z,0.28
2022-09-21T20:55:37.219Z,0.20
2022-09-21T20:58:03.600Z,0.20
2022-09-21T21:00:29.945Z,0.30
2022-09-21T21:02:57.204Z,0.30
2022-09-21T21:05:24.181Z,0.30
2022-09-21T21:07:50.459Z,0.30
2022-09-21T21:10:18.839Z,0.63
2022-09-21T21:12:45.170Z,0.30
2022-09-21T21:15:12.405Z,0.30
2022-09-21T21:17:39.086Z,0.60
2022-09-21T21:20:06.607Z,0.40
2022-09-21T21:22:32.906Z,0.55
2022-09-21T21:24:59.327Z,0.30
2022-09-21T21:27:25.845Z,0.52
2022-09-21T21:29:55.556Z,0.90
2022-09-21T21:32:23.856Z,0.30
2022-09-21T21:34:51.158Z,0.57
2022-09-21T21:37:18.044Z,0.30
2022-09-21T21:39:44.630Z,0.30
2022-09-21T21:42:11.142Z,0.30
2022-09-21T21:44:37.789Z,0.28
2022-09-21T21:47:21.340Z,0.55
2022-09-21T21:49:50.627Z,1.08
2022-09-21T21:52:17.092Z,0.47
2022-09-21T21:54:43.369Z,0.95
2022-09-21T21:57:10.052Z,0.30
2022-09-21T21:59:36.592Z,0.30
2022-09-21T22:02:02.944Z,0.30
2022-09-21T22:04:29.385Z,0.30
2022-09-21T22:06:55.794Z,0.20
2022-09-21T22:09:22.230Z,0.20
2022-09-21T22:11:48.884Z,0.60
2022-09-21T22:14:15.246Z,0.30
2022-09-21T22:16:41.659Z,1.63
2022-09-21T22:19:08.945Z,0.30
2022-09-21T22:21:40.071Z,0.70
2022-09-21T22:24:06.646Z,0.57
2022-09-21T22:26:35.504Z,0.40
2022-09-21T22:29:03.300Z,0.70
2022-09-21T22:31:31.654Z,0.47
2022-09-21T22:33:58.676Z,0.63
2022-09-21T22:36:26.380Z,0.50
2022-09-21T22:38:52.998Z,0.57
2022-09-21T22:41:21.086Z,0.40
2022-09-21T22:43:48.279Z,0.35
2022-09-21T22:46:16.525Z,0.30
2022-09-21T22:48:43.490Z,0.45
2022-09-21T22:51:09.904Z,0.73
2022-09-21T22:53:36.209Z,0.50
2022-09-21T22:56:03.226Z,0.50
2022-09-21T22:58:30.226Z,0.82
2022-09-21T23:01:07.017Z,0.50
2022-09-21T23:03:33.768Z,0.40
2022-09-21T23:06:00.556Z,0.40
2022-09-21T23:08:28.064Z,0.40
2022-09-21T23:10:54.783Z,0.65
2022-09-21T23:13:21.151Z,0.50
2022-09-21T23:15:47.488Z,0.38
2022-09-21T23:18:13.892Z,0.50
2022-09-21T23:20:40.166Z,0.55
2022-09-21T23:23:06.575Z,0.43
2022-09-21T23:25:33.089Z,0.30
2022-09-21T23:28:00.446Z,0.32
2022-09-21T23:30:26.727Z,0.40
2022-09-21T23:32:53.129Z,0.40
2022-09-21T23:35:19.411Z,0.30
2022-09-21T23:37:47.277Z,0.20
2022-09-21T23:40:13.678Z,0.30
2022-09-21T23:42:39.986Z,0.30
2022-09-21T23:45:06.688Z,0.20
2022-09-21T23:47:33.084Z,0.20
2022-09-21T23:49:59.365Z,0.20
2022-09-21T23:52:28.539Z,0.30
2022-09-21T23:54:54.853Z,0.20
2022-09-21T23:57:21.144Z,0.20
2022-09-21T23:59:48.185Z,0.20
